createdAt,value
2018-05-16T00:01:54.966Z,81.20
2018-05-16T00:04:22.480Z,80.50
2018-05-16T00:06:49.982Z,81.10
2018-05-16T00:09:17.501Z,81.70
2018-05-16T00:11:45.017Z,81.80
2018-05-16T00:14:13.276Z,81.60
2018-05-16T00:16:40.802Z,81.60
2018-05-16T00:19:09.792Z,80.80
2018-05-16T00:21:37.316Z,80.70
2018-05-16T00:26:39.481Z,81.10
2018-05-16T00:29:07.746Z,80.80
2018-05-16T00:31:35.525Z,80.50
2018-05-16T00:34:03.808Z,79.70
2018-05-16T00:36:32.077Z,80.80
2018-05-16T00:39:00.373Z,81.10
2018-05-16T00:41:27.876Z,81.10
2018-05-16T00:43:55.384Z,81.20
2018-05-16T00:46:22.979Z,81.40
2018-05-16T00:48:50.502Z,80.80
2018-05-16T00:51:30.654Z,81.40
2018-05-16T00:53:58.934Z,81.50
2018-05-16T00:56:27.191Z,81.40
2018-05-16T00:58:54.704Z,80.50
2018-05-16T01:01:22.200Z,81.00
2018-05-16T01:03:49.721Z,81.20
2018-05-16T01:06:17.227Z,81.00
2018-05-16T01:08:44.725Z,80.90
2018-05-16T01:11:12.301Z,82.20
2018-05-16T01:13:39.930Z,81.20
2018-05-16T01:16:07.485Z,81.70
2018-05-16T01:18:35.766Z,81.40
2018-05-16T01:21:03.273Z,80.70
2018-05-16T01:23:30.817Z,81.30
2018-05-16T01:25:58.929Z,81.70
2018-05-16T01:28:26.439Z,82.90
2018-05-16T01:30:53.962Z,81.70
2018-05-16T01:33:22.301Z,81.70
2018-05-16T01:35:50.196Z,81.30
2018-05-16T01:38:17.708Z,81.10
2018-05-16T01:40:45.216Z,82.10
2018-05-16T01:43:12.760Z,81.10
2018-05-16T01:45:40.285Z,81.70
2018-05-16T01:48:07.802Z,81.50
2018-05-16T01:50:36.068Z,81.60
2018-05-16T01:53:03.577Z,81.50
2018-05-16T01:55:31.076Z,81.30
2018-05-16T01:57:58.599Z,81.50
2018-05-16T02:00:26.144Z,82.00
2018-05-16T02:02:53.648Z,82.10
2018-05-16T02:05:21.177Z,81.30
2018-05-16T02:07:48.680Z,81.80
2018-05-16T02:10:16.202Z,82.00
2018-05-16T02:12:43.701Z,81.40
2018-05-16T02:15:11.214Z,81.80
2018-05-16T02:17:38.805Z,80.10
2018-05-16T02:20:06.308Z,80.70
2018-05-16T02:22:33.813Z,80.50
2018-05-16T02:25:01.329Z,81.00
2018-05-16T02:27:28.833Z,82.00
2018-05-16T02:29:56.343Z,81.70
2018-05-16T02:32:23.858Z,81.10
2018-05-16T02:34:51.385Z,80.60
2018-05-16T02:37:18.905Z,79.80
2018-05-16T02:39:47.182Z,80.80
2018-05-16T02:42:15.469Z,81.00
2018-05-16T02:44:42.971Z,81.00
2018-05-16T02:47:10.485Z,81.00
2018-05-16T02:49:38.784Z,80.60
2018-05-16T02:52:06.376Z,79.80
2018-05-16T02:54:34.721Z,80.70
2018-05-16T02:57:02.146Z,80.70
2018-05-16T02:59:30.422Z,81.10
2018-05-16T03:01:58.693Z,81.10
2018-05-16T03:04:26.211Z,81.10
2018-05-16T03:06:55.104Z,80.80
2018-05-16T03:09:22.613Z,80.80
2018-05-16T03:11:50.138Z,81.10
2018-05-16T03:14:17.730Z,81.80
2018-05-16T03:16:45.998Z,81.60
2018-05-16T03:19:13.537Z,81.60
2018-05-16T03:21:41.084Z,81.40
2018-05-16T03:24:09.206Z,81.40
2018-05-16T03:26:37.468Z,82.30
2018-05-16T03:29:04.970Z,82.20
2018-05-16T03:31:32.480Z,81.70
2018-05-16T03:34:00.041Z,81.40
2018-05-16T03:36:27.556Z,82.00
2018-05-16T03:38:55.062Z,82.40
2018-05-16T03:41:22.581Z,82.30
2018-05-16T03:43:50.087Z,81.90
2018-05-16T03:46:18.376Z,81.30
2018-05-16T03:48:46.641Z,82.20
2018-05-16T03:51:14.940Z,81.70
2018-05-16T03:53:42.465Z,81.70
2018-05-16T03:56:09.956Z,81.70
2018-05-16T03:58:49.953Z,81.80
2018-05-16T04:01:29.459Z,81.30
2018-05-16T04:04:08.708Z,81.50
2018-05-16T04:06:36.236Z,81.70
2018-05-16T04:09:03.826Z,81.90
2018-05-16T04:11:31.401Z,82.00
2018-05-16T04:13:58.969Z,81.90
2018-05-16T04:16:26.490Z,82.00
2018-05-16T04:18:54.120Z,82.10
2018-05-16T04:21:22.413Z,81.70
2018-05-16T04:23:50.688Z,81.90
2018-05-16T04:26:18.953Z,81.20
2018-05-16T04:28:47.484Z,81.50
2018-05-16T04:31:14.987Z,81.40
2018-05-16T04:33:42.501Z,81.50
2018-05-16T04:36:10.478Z,81.60
2018-05-16T04:38:37.981Z,81.40
2018-05-16T04:41:06.261Z,81.80
2018-05-16T04:43:34.536Z,81.70
2018-05-16T04:46:02.816Z,81.80
2018-05-16T04:48:31.080Z,81.90
2018-05-16T04:50:58.693Z,81.90
2018-05-16T04:53:26.258Z,81.80
2018-05-16T04:55:53.859Z,81.60
2018-05-16T04:58:21.446Z,81.40
2018-05-16T05:00:49.747Z,81.30
2018-05-16T05:03:17.240Z,81.30
2018-05-16T05:05:44.754Z,81.20
2018-05-16T05:08:12.814Z,81.30
2018-05-16T05:10:41.086Z,80.70
2018-05-16T05:13:09.371Z,80.50
2018-05-16T05:15:37.644Z,79.90
2018-05-16T05:18:05.981Z,80.50
2018-05-16T05:20:33.425Z,80.50
2018-05-16T05:23:00.958Z,80.80
2018-05-16T05:25:28.544Z,81.00
2018-05-16T05:27:56.059Z,81.40
2018-05-16T05:30:24.435Z,82.00
2018-05-16T05:32:51.873Z,81.90
2018-05-16T05:35:19.389Z,81.40
2018-05-16T05:37:46.894Z,81.60
2018-05-16T05:40:15.181Z,80.90
2018-05-16T05:42:43.469Z,80.30
2018-05-16T05:45:11.737Z,80.40
2018-05-16T05:47:40.182Z,80.80
2018-05-16T05:50:07.770Z,80.70
2018-05-16T05:52:36.075Z,80.00
2018-05-16T05:55:03.590Z,79.90
2018-05-16T05:57:31.255Z,79.60
2018-05-16T05:59:58.853Z,78.30
2018-05-16T06:02:26.373Z,78.10
2018-05-16T06:04:54.490Z,77.60
2018-05-16T06:07:22.042Z,77.10
2018-05-16T06:09:49.560Z,76.20
2018-05-16T06:12:17.458Z,76.00
2018-05-16T06:14:45.726Z,73.20
2018-05-16T06:17:14.181Z,72.90
2018-05-16T06:19:41.829Z,72.90
2018-05-16T06:22:09.429Z,73.00
2018-05-16T06:24:37.028Z,73.80
2018-05-16T06:27:04.662Z,74.50
2018-05-16T06:29:32.975Z,74.20
2018-05-16T06:32:00.487Z,74.20
2018-05-16T06:34:28.001Z,74.70
2018-05-16T06:36:55.510Z,74.90
2018-05-16T06:39:23.789Z,73.60
2018-05-16T06:41:52.148Z,74.00
2018-05-16T06:44:19.677Z,74.00
2018-05-16T06:46:47.249Z,73.70
2018-05-16T06:49:14.830Z,74.20
2018-05-16T06:51:42.421Z,74.60
2018-05-16T06:54:09.997Z,74.10
2018-05-16T06:56:37.625Z,74.70
2018-05-16T06:59:05.913Z,76.40
2018-05-16T07:01:34.188Z,76.80
2018-05-16T07:04:02.538Z,75.90
2018-05-16T07:06:29.996Z,75.90
2018-05-16T07:08:58.110Z,75.70
2018-05-16T07:11:25.621Z,78.00
2018-05-16T07:13:53.125Z,78.90
2018-05-16T07:16:20.637Z,78.80
2018-05-16T07:18:48.203Z,79.00
2018-05-16T07:21:15.680Z,80.00
2018-05-16T07:23:43.181Z,80.10
2018-05-16T07:26:10.685Z,80.00
2018-05-16T07:28:38.270Z,79.50
2018-05-16T07:31:06.550Z,82.50
2018-05-16T07:33:34.957Z,82.60
2018-05-16T07:36:02.476Z,81.80
2018-05-16T07:38:29.993Z,81.50
2018-05-16T07:40:57.507Z,81.70
2018-05-16T07:43:25.813Z,81.60
2018-05-16T07:45:53.337Z,81.50
2018-05-16T07:48:21.664Z,82.70
2018-05-16T07:50:50.017Z,82.70
2018-05-16T07:53:17.521Z,82.30
2018-05-16T07:55:45.024Z,82.70
2018-05-16T07:58:12.592Z,81.90
2018-05-16T08:00:40.093Z,82.70
2018-05-16T08:03:07.683Z,81.90
2018-05-16T08:05:35.163Z,83.00
2018-05-16T08:08:02.667Z,83.10
2018-05-16T08:10:31.202Z,81.20
2018-05-16T08:12:59.517Z,82.60
2018-05-16T08:15:27.145Z,82.60
2018-05-16T08:17:55.413Z,82.30
2018-05-16T08:20:23.705Z,83.20
2018-05-16T08:22:51.201Z,83.20
2018-05-16T08:25:18.753Z,82.30
2018-05-16T08:27:46.265Z,80.80
2018-05-16T08:30:14.541Z,81.10
2018-05-16T08:32:42.830Z,80.20
2018-05-16T08:35:10.336Z,80.10
2018-05-16T08:37:37.855Z,79.90
2018-05-16T08:40:05.443Z,79.40
2018-05-16T08:42:33.327Z,80.10
2018-05-16T08:45:01.317Z,79.00
2018-05-16T08:47:29.610Z,79.10
2018-05-16T08:49:57.878Z,79.30
2018-05-16T08:52:30.309Z,78.00
2018-05-16T08:54:57.809Z,78.00
2018-05-16T08:57:25.353Z,78.90
2018-05-16T08:59:52.867Z,78.80
2018-05-16T09:02:20.755Z,79.00
2018-05-16T09:04:49.030Z,79.00
2018-05-16T09:07:16.586Z,79.70
2018-05-16T09:09:44.103Z,79.50
2018-05-16T09:12:11.666Z,79.60
2018-05-16T09:14:39.940Z,80.40
2018-05-16T09:17:13.078Z,79.90
2018-05-16T09:19:40.625Z,79.90
2018-05-16T09:22:08.853Z,79.30
2018-05-16T09:24:36.373Z,78.70
2018-05-16T09:27:04.033Z,79.80
2018-05-16T09:29:31.549Z,78.70
2018-05-16T09:31:59.889Z,79.00
2018-05-16T09:34:27.463Z,79.00
2018-05-16T09:36:55.008Z,81.20
2018-05-16T09:39:22.525Z,80.90
2018-05-16T09:41:50.045Z,79.90
2018-05-16T09:44:17.551Z,79.70
2018-05-16T09:46:45.061Z,77.60
2018-05-16T09:49:12.672Z,77.90
2018-05-16T09:51:40.866Z,79.90
2018-05-16T09:54:08.385Z,79.00
2018-05-16T09:56:36.670Z,80.30
2018-05-16T09:59:04.196Z,80.30
2018-05-16T10:01:31.715Z,79.10
2018-05-16T10:03:59.252Z,78.20
2018-05-16T10:06:27.699Z,77.60
2018-05-16T10:08:55.325Z,78.30
2018-05-16T10:11:22.929Z,78.40
2018-05-16T10:13:51.947Z,79.30
2018-05-16T10:16:19.466Z,79.20
2018-05-16T10:18:47.003Z,77.80
2018-05-16T10:21:14.505Z,79.70
2018-05-16T10:23:43.691Z,79.60
2018-05-16T10:26:12.505Z,79.60
2018-05-16T10:41:40.077Z,79.60
2018-05-16T10:44:07.698Z,84.00
2018-05-16T10:46:35.225Z,85.10
2018-05-16T10:49:03.613Z,83.30
2018-05-16T10:51:31.210Z,83.40
2018-05-16T10:53:59.504Z,82.30
2018-05-16T10:56:27.036Z,82.30
2018-05-16T10:58:55.398Z,81.70
2018-05-16T11:01:22.913Z,81.50
2018-05-16T11:03:51.402Z,81.10
2018-05-16T11:06:18.717Z,80.40
2018-05-16T11:08:51.019Z,80.40
2018-05-16T11:11:19.401Z,80.40
2018-05-16T11:13:47.678Z,80.60
2018-05-16T11:16:15.182Z,77.30
2018-05-16T11:18:42.708Z,80.00
2018-05-16T11:21:10.223Z,79.60
2018-05-16T11:23:42.386Z,75.60
2018-05-16T11:26:11.323Z,75.60
2018-05-16T11:28:38.857Z,75.50
2018-05-16T11:31:06.656Z,75.60
2018-05-16T11:33:34.870Z,75.00
2018-05-16T11:36:02.423Z,73.50
2018-05-16T11:38:29.931Z,73.90
2018-05-16T11:40:57.461Z,72.10
2018-05-16T11:43:25.737Z,74.30
2018-05-16T11:45:54.069Z,72.70
2018-05-16T11:48:25.299Z,72.70
2018-05-16T11:50:52.821Z,71.40
2018-05-16T11:53:21.150Z,73.10
2018-05-16T11:55:49.295Z,73.00
2018-05-16T11:58:16.803Z,73.00
2018-05-16T12:00:44.426Z,73.80
2018-05-16T12:03:12.007Z,72.80
2018-05-16T12:05:43.505Z,73.40
2018-05-16T12:08:11.814Z,72.40
2018-05-16T12:10:39.335Z,72.30
2018-05-16T12:13:07.634Z,74.00
2018-05-16T12:15:35.137Z,74.00
2018-05-16T12:18:02.656Z,76.90
2018-05-16T12:20:30.174Z,73.70
2018-05-16T12:22:57.670Z,72.90
2018-05-16T12:25:25.213Z,74.20
2018-05-16T12:27:53.481Z,74.60
2018-05-16T12:30:20.996Z,74.50
2018-05-16T12:32:48.529Z,73.90
2018-05-16T12:35:16.090Z,74.00
2018-05-16T12:37:44.214Z,74.30
2018-05-16T12:40:11.717Z,72.70
2018-05-16T12:42:51.241Z,73.90
2018-05-16T12:45:19.652Z,75.70
2018-05-16T12:47:47.156Z,75.60
2018-05-16T12:50:15.606Z,74.20
2018-05-16T12:52:43.269Z,73.80
2018-05-16T12:55:10.882Z,74.60
2018-05-16T12:57:39.161Z,73.70
2018-05-16T13:00:07.488Z,71.60
2018-05-16T13:02:35.007Z,71.50
2018-05-16T13:05:03.431Z,73.80
2018-05-16T13:07:30.937Z,73.70
2018-05-16T13:09:59.281Z,74.10
2018-05-16T13:12:26.836Z,74.20
2018-05-16T13:14:54.369Z,73.40
2018-05-16T13:17:22.078Z,71.50
2018-05-16T13:19:49.601Z,71.80
2018-05-16T13:22:17.906Z,71.90
2018-05-16T13:24:45.434Z,70.60
2018-05-16T13:27:12.969Z,71.20
2018-05-16T13:29:40.485Z,71.40
2018-05-16T13:32:08.962Z,69.40
2018-05-16T13:34:36.492Z,69.80
2018-05-16T13:37:03.996Z,69.70
2018-05-16T13:39:31.553Z,70.00
2018-05-16T13:41:59.937Z,69.10
2018-05-16T13:44:27.565Z,70.30
2018-05-16T13:46:55.112Z,68.30
2018-05-16T13:49:22.642Z,69.10
2018-05-16T13:51:50.938Z,70.90
2018-05-16T13:54:18.481Z,70.80
2018-05-16T13:56:47.093Z,69.60
2018-05-16T13:59:14.606Z,69.60
2018-05-16T14:01:47.217Z,68.20
2018-05-16T14:04:19.161Z,68.00
2018-05-16T14:06:47.438Z,67.80
2018-05-16T14:09:15.790Z,69.50
2018-05-16T14:11:43.902Z,69.50
2018-05-16T14:14:11.401Z,70.00
2018-05-16T14:16:38.960Z,71.00
2018-05-16T14:19:06.540Z,72.00
2018-05-16T14:21:34.682Z,71.80
2018-05-16T14:24:02.213Z,69.90
2018-05-16T14:26:30.314Z,72.50
2018-05-16T14:28:58.326Z,73.50
2018-05-16T14:31:25.842Z,72.10
2018-05-16T14:33:54.830Z,72.60
2018-05-16T14:36:22.330Z,73.90
2018-05-16T14:38:49.857Z,76.50
2018-05-16T14:41:18.053Z,75.20
2018-05-16T14:43:45.573Z,74.70
2018-05-16T14:46:13.090Z,76.70
2018-05-16T14:48:40.621Z,75.60
2018-05-16T14:51:08.142Z,75.00
2018-05-16T14:53:35.662Z,75.60
2018-05-16T15:09:03.234Z,75.70
2018-05-16T15:11:31.521Z,79.10
2018-05-16T15:13:59.961Z,79.10
2018-05-16T15:16:27.491Z,78.50
2018-05-16T15:18:54.998Z,77.70
2018-05-16T15:21:24.173Z,73.70
2018-05-16T15:23:51.668Z,73.70
2018-05-16T15:26:19.954Z,72.30
2018-05-16T15:28:48.253Z,72.50
2018-05-16T15:31:15.762Z,72.60
2018-05-16T15:33:44.868Z,71.90
2018-05-16T15:36:13.250Z,70.60
2018-05-16T15:38:41.539Z,69.90
2018-05-16T15:41:10.786Z,71.50
2018-05-16T15:43:39.129Z,71.30
2018-05-16T15:46:06.650Z,71.00
2018-05-16T15:48:34.251Z,71.60
2018-05-16T15:51:01.786Z,71.50
2018-05-16T15:53:32.485Z,72.40
2018-05-16T15:56:00.732Z,72.40
2018-05-16T15:58:28.509Z,71.80
2018-05-16T16:01:00.729Z,73.00
2018-05-16T16:03:29.013Z,70.80
2018-05-16T16:05:57.434Z,71.10
2018-05-16T16:08:25.268Z,71.00
2018-05-16T16:10:53.596Z,69.90
2018-05-16T16:13:21.496Z,69.90
2018-05-16T16:15:50.437Z,69.30
2018-05-16T16:18:17.967Z,69.30
2018-05-16T16:20:46.181Z,69.70
2018-05-16T16:23:13.702Z,69.20
2018-05-16T16:25:41.680Z,68.90
2018-05-16T16:28:09.250Z,70.00
2018-05-16T16:41:48.142Z,67.30
2018-05-16T16:44:15.664Z,67.20
2018-05-16T16:46:43.268Z,68.30
2018-05-16T16:49:11.181Z,68.00
2018-05-16T16:51:38.706Z,68.50
2018-05-16T16:54:06.237Z,67.00
2018-05-16T16:56:34.532Z,67.80
2018-05-16T16:59:02.090Z,67.80
2018-05-16T17:01:29.596Z,67.90
2018-05-16T17:03:57.109Z,69.50
2018-05-16T17:06:24.617Z,69.50
2018-05-16T17:08:52.141Z,70.40
2018-05-16T17:11:19.664Z,70.40
2018-05-16T17:13:47.957Z,72.00
2018-05-16T17:16:15.581Z,72.00
2018-05-16T17:18:43.774Z,71.30
2018-05-16T17:21:12.187Z,71.40
2018-05-16T17:23:39.742Z,71.40
2018-05-16T17:26:07.432Z,70.40
2018-05-16T17:28:35.010Z,70.60
2018-05-16T17:31:02.574Z,69.40
2018-05-16T17:33:30.154Z,70.60
2018-05-16T17:35:58.437Z,70.70
2018-05-16T17:38:26.743Z,71.10
2018-05-16T17:40:54.270Z,71.10
2018-05-16T17:43:22.654Z,71.30
2018-05-16T17:45:50.113Z,71.20
2018-05-16T17:48:18.527Z,72.30
2018-05-16T17:50:47.139Z,72.30
2018-05-16T17:53:14.693Z,72.90
2018-05-16T17:55:42.199Z,74.00
2018-05-16T17:58:10.491Z,73.30
2018-05-16T18:00:38.101Z,73.30
2018-05-16T18:03:05.606Z,74.00
2018-05-16T18:05:33.137Z,74.40
2018-05-16T18:08:00.655Z,73.80
2018-05-16T18:10:29.140Z,74.20
2018-05-16T18:13:18.422Z,74.10
2018-05-16T18:15:57.735Z,74.20
2018-05-16T18:18:25.272Z,73.80
2018-05-16T18:20:52.813Z,73.90
2018-05-16T18:23:21.102Z,73.70
2018-05-16T18:25:48.668Z,73.60
2018-05-16T18:28:16.249Z,73.30
2018-05-16T18:30:43.868Z,74.00
2018-05-16T18:33:12.154Z,73.40
2018-05-16T18:35:41.900Z,73.40
2018-05-16T18:38:09.404Z,73.40
2018-05-16T18:40:36.917Z,73.00
2018-05-16T18:43:04.430Z,73.20
2018-05-16T18:45:32.701Z,73.00
2018-05-16T18:48:00.241Z,72.90
2018-05-16T18:50:27.816Z,73.30
2018-05-16T18:52:55.339Z,74.00
2018-05-16T19:08:22.914Z,74.10
2018-05-16T19:10:50.455Z,78.20
2018-05-16T19:13:18.024Z,77.80
2018-05-16T19:15:45.530Z,77.60
2018-05-16T19:18:13.821Z,76.80
2018-05-16T19:20:41.369Z,76.70
2018-05-16T19:23:09.678Z,76.50
2018-05-16T19:25:37.199Z,76.50
2018-05-16T19:28:05.477Z,76.00
2018-05-16T19:30:33.770Z,76.50
2018-05-16T19:33:01.308Z,76.50
2018-05-16T19:35:29.595Z,76.10
2018-05-16T19:37:57.867Z,76.00
2018-05-16T19:40:26.163Z,75.10
2018-05-16T19:42:53.710Z,75.00
2018-05-16T19:45:22.046Z,74.70
2018-05-16T19:47:49.604Z,74.70
2018-05-16T19:50:17.742Z,74.50
2018-05-16T19:52:45.289Z,74.20
2018-05-16T19:55:12.810Z,73.80
2018-05-16T19:57:40.377Z,73.50
2018-05-16T20:00:07.898Z,72.80
2018-05-16T20:02:35.422Z,72.70
2018-05-16T20:05:02.949Z,71.30
2018-05-16T20:07:30.527Z,71.70
2018-05-16T20:09:59.056Z,70.60
2018-05-16T20:12:26.591Z,70.60
2018-05-16T20:14:54.165Z,70.90
2018-05-16T20:17:22.443Z,70.00
2018-05-16T20:19:49.950Z,70.00
2018-05-16T20:22:17.474Z,69.40
2018-05-16T20:24:45.040Z,69.00
2018-05-16T20:27:12.597Z,69.60
2018-05-16T20:29:40.133Z,69.20
2018-05-16T20:32:07.657Z,68.60
2018-05-16T20:34:39.131Z,68.70
2018-05-16T20:37:06.674Z,68.60
2018-05-16T20:39:34.997Z,68.70
2018-05-16T20:42:03.427Z,68.60
2018-05-16T20:44:31.728Z,69.70
2018-05-16T20:46:59.234Z,69.70
2018-05-16T20:49:26.761Z,69.20
2018-05-16T20:51:54.269Z,69.00
2018-05-16T21:07:27.598Z,73.50
2018-05-16T21:09:55.120Z,73.50
2018-05-16T21:12:24.079Z,72.00
2018-05-16T21:14:52.244Z,72.00
2018-05-16T21:17:19.840Z,71.70
2018-05-16T21:19:47.401Z,71.00
2018-05-16T21:22:14.938Z,71.10
2018-05-16T21:24:42.439Z,70.90
2018-05-16T21:27:10.730Z,71.30
2018-05-16T21:29:38.568Z,71.20
2018-05-16T21:32:06.106Z,71.70
2018-05-16T21:34:33.622Z,72.20
2018-05-16T21:37:01.138Z,72.70
2018-05-16T21:39:28.655Z,72.70
2018-05-16T21:41:56.182Z,73.00
2018-05-16T21:44:24.467Z,73.80
2018-05-16T21:46:52.747Z,74.20
2018-05-16T21:49:21.648Z,74.30
2018-05-16T21:51:53.190Z,74.30
2018-05-16T21:54:21.301Z,74.50
2018-05-16T21:56:48.913Z,74.60
2018-05-16T21:59:16.469Z,74.90
2018-05-16T22:01:44.749Z,74.70
2018-05-16T22:04:13.025Z,74.90
2018-05-16T22:06:41.306Z,74.90
2018-05-16T22:09:09.586Z,74.70
2018-05-16T22:11:41.009Z,74.70
2018-05-16T22:14:08.531Z,75.00
2018-05-16T22:16:36.064Z,74.70
2018-05-16T22:19:03.554Z,75.10
2018-05-16T22:21:31.078Z,75.40
2018-05-16T22:23:59.356Z,74.80
2018-05-16T22:26:26.909Z,74.80
2018-05-16T22:28:55.194Z,75.70
2018-05-16T22:31:28.499Z,75.70
2018-05-16T22:34:01.658Z,75.90
2018-05-16T22:36:34.874Z,76.30
2018-05-16T22:39:08.142Z,76.20
2018-05-16T22:41:41.415Z,76.80
2018-05-16T22:44:14.638Z,77.40
2018-05-16T22:46:42.918Z,77.30
2018-05-16T22:49:11.180Z,77.80
2018-05-16T22:51:39.377Z,77.60
2018-05-16T22:54:07.661Z,77.40
2018-05-16T22:56:35.440Z,77.30
2018-05-16T22:59:03.312Z,77.20
2018-05-16T23:01:30.822Z,77.10
2018-05-16T23:03:59.219Z,77.40
2018-05-16T23:06:31.198Z,77.80
2018-05-16T23:08:59.254Z,77.80
2018-05-16T23:11:27.609Z,78.30
2018-05-16T23:13:55.118Z,78.30
2018-05-16T23:16:22.645Z,78.30
2018-05-16T23:18:50.938Z,78.10
2018-05-16T23:21:19.241Z,78.00
2018-05-16T23:23:46.780Z,77.90
2018-05-16T23:26:14.304Z,77.80
2018-05-16T23:28:41.857Z,77.50
2018-05-16T23:31:09.379Z,77.60
2018-05-16T23:33:36.898Z,77.60
2018-05-16T23:36:05.935Z,77.40
2018-05-16T23:38:33.428Z,77.40
2018-05-16T23:41:00.936Z,77.30
2018-05-16T23:43:29.389Z,77.40
2018-05-16T23:45:57.694Z,76.90
2018-05-16T23:48:25.963Z,76.90
2018-05-16T23:50:53.504Z,76.90
2018-05-16T23:53:21.761Z,76.70
2018-05-16T23:55:49.301Z,76.60
2018-05-16T23:58:16.890Z,76.20
